Aérodrome :
LOGIN :

S'inscrire | Disclaimer

   EN    FR    IT 

 










Légende :    VFR   VFR Marginal   IFR   IFR Intensif   IFR Très Intensif
Visi : 
Plafond : 
>= 8 km
>= 3000ft
5 à 8 km
1000 à 3000 ft
1500m à 5 km
500 à 1000 ft
800 à 1500m
200 à 500 ft
< 800m
< 200 ft
Symboles :   Orages  Brouillard  Fortes neiges  Fortes précipitations  Vent > 20 kt
SIGMETs :   Divers  Orages  Givrage  Turbulence  Onde Orograph.  Cendres Volcan.






- Altitude de l'aérodrome : 370 ft


EBBE - Beauvechain AB

DERNIER METAR :
  • 091819Z AUTO VRB01KT 1800 BR OVC002/// M02/M02 Q1006 AMB

METARs EXPIRÉS :
  • 091755Z AUTO VRB02KT 2100 BR BKN001/// OVC003/// M02/M02 Q1006 RED
  • 091725Z AUTO 13003KT 0900 FG OVC001/// M02/M02 Q1006 RED
  • 091655Z AUTO 12004KT 0550 FG OVC003/// M02/M02 Q1006 RED
  • 091625Z AUTO 12004KT 1100 BR OVC001/// M02/M02 Q1006 RED
  • 091555Z AUTO 14004KT 0800 FG OVC001/// M02/M02 Q1006 RED
  • 091525Z AUTO VRB02KT 0750 FG OVC001/// M02/M02 Q1006 RED

TAF AMD TAF EBBE
Valide du 09 à 13h jusqu'au 09 à 22h UTC


091240Z 0913/0922 VRB03KT 0500 FZFG OVC002
PROB40
TEMPO 0913/0919 3000 BR SCT003 BKN004



MET'MAP, la Météo Aéronautique d'un coup d'oeil ! - Copyright ORBIFLY Décembre 2007 - Disclaimer

ORBIFLY MET'MAP TEAM :

Programmation & Développement : Alexandra Zaïnal
Sur une idée originale de : Baudouin d'Aumeries
Soutien technique & logistique : Manuel Goepfert
Assistance : Marc-Olivier Méhu




SOURCES & CREDITS :

   NOAA